Time;durP1;ratioP1;P1;durP2;ratioP2;P2;SDS_P1;SDS_P2;PMS_P1;PMS_P2;Temp;Humidity;BMP_temperature;BMP_pressure;BME280_temperature;BME280_humidity;BME280_pressure;Samples;Min_cycle;Max_cycle;Signal;HPM_P1;HPM_P2
2021/11/28 00:00:53;;;;;;;;;;;;;;;3.19;100.00;99407.13;5051306;28;19924;-54
2021/11/28 00:03:20;;;;;;;;;;;;;;;3.19;100.00;99408.84;5069201;28;19928;-55
2021/11/28 00:05:57;;;;;;;;;;;;;;;3.11;100.00;99406.72;5069122;28;20023;-53
2021/11/28 00:15:57;;;;;;;;;;;;;;;3.13;100.00;99415.25;5068698;28;20634;-50
2021/11/28 00:18:23;;;;;;;;;;;;;;;3.14;100.00;99416.09;5068566;28;19924;-56
2021/11/28 00:20:50;;;;;;;;;;;;;;;3.09;100.00;99413.75;5071492;28;19928;-52
2021/11/28 00:23:16;;;;;;;;;;;;;;;3.14;100.00;99411.72;5069656;28;19932;-56
2021/11/28 00:25:43;;;;;;;;;;;;;;;3.07;100.00;99410.41;5068317;28;20383;-56
2021/11/28 00:28:16;;;;;;;;;;;;;;;3.00;100.00;99414.25;5072793;28;19932;-54
2021/11/28 00:30:42;;;;;;;;;;;;;;;2.95;100.00;99411.13;5071486;28;20406;-51
2021/11/28 00:33:09;;;;;;;;;;;;;;;2.94;100.00;99414.63;5072144;28;19924;-55
2021/11/28 00:35:36;;;;;;;;;;;;;;;2.91;100.00;99415.63;5072833;28;19924;-56
2021/11/28 00:38:02;;;;;;;;;;;;;;;2.93;100.00;99416.41;5073060;28;19925;-51
2021/11/28 00:40:29;;;;;;;;;;;;;;;2.94;100.00;99415.44;5074245;28;20257;-48
2021/11/28 00:42:56;;;;;;;;;;;;;;;2.96;100.00;99410.16;5073209;28;19978;-50
2021/11/28 00:45:23;;;;;;;;;;;;;;;3.06;100.00;99421.72;5072446;28;19925;-50
2021/11/28 00:47:50;;;;;;;;;;;;;;;3.00;100.00;99419.47;5071382;28;19924;-51
2021/11/28 00:52:44;;;;;;;;;;;;;;;2.95;100.00;99418.91;5070659;28;19925;-49
2021/11/28 00:55:10;;;;;;;;;;;;;;;2.91;100.00;99422.59;5072470;28;19924;-50
2021/11/28 00:57:37;;;;;;;;;;;;;;;2.98;100.00;99427.34;5072184;28;19978;-51
2021/11/28 01:00:05;;;;;;;;;;;;;;;2.98;100.00;99426.53;5071598;28;20371;-51
2021/11/28 01:02:32;;;;;;;;;;;;;;;2.93;100.00;99426.78;5075126;28;19928;-53
2021/11/28 01:05:01;;;;;;;;;;;;;;;2.88;100.00;99427.03;5074312;28;20046;-50
2021/11/28 01:07:27;;;;;;;;;;;;;;;2.93;100.00;99436.31;5071884;28;20465;-52
2021/11/28 01:09:54;;;;;;;;;;;;;;;2.98;100.00;99440.31;5072604;28;19925;-52
2021/11/28 01:12:21;;;;;;;;;;;;;;;2.96;100.00;99441.34;5071640;28;19929;-56
2021/11/28 01:14:48;;;;;;;;;;;;;;;2.95;100.00;99447.47;5070084;28;19924;-52
2021/11/28 01:17:15;;;;;;;;;;;;;;;2.89;100.00;99451.25;5074064;28;19986;-49
2021/11/28 01:19:42;;;;;;;;;;;;;;;2.93;100.00;99449.31;5072031;28;19924;-51
2021/11/28 01:22:09;;;;;;;;;;;;;;;2.92;100.00;99460.59;5071726;28;20373;-50
2021/11/28 01:24:36;;;;;;;;;;;;;;;2.90;100.00;99462.47;5071963;28;20407;-54
2021/11/28 01:27:04;;;;;;;;;;;;;;;2.91;100.00;99466.75;5070342;28;19928;-49
2021/11/28 01:29:30;;;;;;;;;;;;;;;2.90;100.00;99468.50;5070874;28;19955;-49
2021/11/28 01:32:01;;;;;;;;;;;;;;;2.92;100.00;99468.41;5071476;28;19928;-53
2021/11/28 01:34:29;;;;;;;;;;;;;;;2.90;100.00;99459.88;5071170;28;20379;-55
2021/11/28 01:36:55;;;;;;;;;;;;;;;2.93;100.00;99462.28;5071357;28;19925;-53
2021/11/28 01:39:22;;;;;;;;;;;;;;;2.91;100.00;99462.38;5071065;28;19998;-52
2021/11/28 01:41:49;;;;;;;;;;;;;;;2.83;100.00;99470.59;5074417;28;20338;-55
2021/11/28 01:44:16;;;;;;;;;;;;;;;2.85;100.00;99462.69;5074486;28;19932;-56
2021/11/28 01:46:43;;;;;;;;;;;;;;;2.90;100.00;99480.66;5073099;28;19959;-50
2021/11/28 01:49:10;;;;;;;;;;;;;;;2.94;100.00;99479.56;5072807;28;19924;-56
2021/11/28 01:51:37;;;;;;;;;;;;;;;2.90;100.00;99478.06;5069930;28;19924;-50
2021/11/28 01:54:11;;;;;;;;;;;;;;;2.91;100.00;99490.94;5071019;28;20465;-47
2021/11/28 01:56:39;;;;;;;;;;;;;;;2.90;100.00;99491.03;5070817;28;19928;-46
2021/11/28 01:59:06;;;;;;;;;;;;;;;2.91;100.00;99488.34;5073516;28;19931;-47
2021/11/28 02:01:33;;;;;;;;;;;;;;;2.87;100.00;99492.88;5071647;28;20022;-47
2021/11/28 02:04:01;;;;;;;;;;;;;;;2.84;100.00;99498.22;5070827;28;19939;-53
2021/11/28 02:06:27;;;;;;;;;;;;;;;2.86;100.00;99495.56;5070846;28;20360;-49
2021/11/28 02:08:55;;;;;;;;;;;;;;;2.94;100.00;99490.78;5070990;28;19932;-49
2021/11/28 02:11:21;;;;;;;;;;;;;;;2.76;100.00;99490.03;5071263;28;19928;-56
2021/11/28 02:13:48;;;;;;;;;;;;;;;2.77;100.00;99486.50;5069913;28;19924;-55
2021/11/28 02:16:15;;;;;;;;;;;;;;;2.83;100.00;99486.16;5070319;28;20341;-54
2021/11/28 02:18:41;;;;;;;;;;;;;;;2.88;100.00;99486.75;5069189;28;20030;-56
2021/11/28 02:21:09;;;;;;;;;;;;;;;2.92;100.00;99492.63;5069818;28;19924;-49
2021/11/28 02:23:36;;;;;;;;;;;;;;;2.92;100.00;99486.59;5071242;28;19925;-53
2021/11/28 02:26:04;;;;;;;;;;;;;;;2.94;100.00;99485.56;5070765;28;19937;-53
2021/11/28 02:28:33;;;;;;;;;;;;;;;2.80;100.00;99486.34;5070716;28;20350;-55
2021/11/28 02:30:59;;;;;;;;;;;;;;;2.77;100.00;99490.84;5071678;28;19928;-47
2021/11/28 02:33:26;;;;;;;;;;;;;;;2.79;100.00;99500.22;5073326;28;19924;-55
2021/11/28 02:35:53;;;;;;;;;;;;;;;2.80;100.00;99501.09;5073333;28;19935;-54
2021/11/28 02:38:20;;;;;;;;;;;;;;;2.82;100.00;99499.22;5072858;28;19960;-56
2021/11/28 02:40:47;;;;;;;;;;;;;;;2.85;100.00;99502.50;5070034;28;19952;-49
2021/11/28 02:43:14;;;;;;;;;;;;;;;2.85;100.00;99499.91;5070483;28;20279;-49
2021/11/28 02:45:40;;;;;;;;;;;;;;;2.80;100.00;99509.72;5073131;28;20350;-54
2021/11/28 02:48:10;;;;;;;;;;;;;;;2.81;100.00;99505.34;5070680;28;19925;-47
2021/11/28 02:50:36;;;;;;;;;;;;;;;2.80;100.00;99498.50;5070104;28;19974;-51
2021/11/28 02:53:04;;;;;;;;;;;;;;;2.70;100.00;99492.97;5070208;28;20349;-50
2021/11/28 02:55:36;;;;;;;;;;;;;;;2.75;100.00;99497.91;5070867;28;19924;-54
2021/11/28 02:58:03;;;;;;;;;;;;;;;2.73;100.00;99492.78;5071743;28;19974;-54
2021/11/28 03:00:30;;;;;;;;;;;;;;;2.72;100.00;99498.91;5071799;28;19942;-54
2021/11/28 03:02:57;;;;;;;;;;;;;;;2.65;100.00;99498.38;5068872;28;19964;-53
2021/11/28 03:05:24;;;;;;;;;;;;;;;2.70;100.00;99500.75;5070446;28;19935;-55
2021/11/28 03:07:51;;;;;;;;;;;;;;;2.79;100.00;99505.44;5068576;28;19928;-53
2021/11/28 03:10:36;;;;;;;;;;;;;;;2.82;100.00;99505.28;5070234;28;19926;-55
2021/11/28 03:13:07;;;;;;;;;;;;;;;2.85;100.00;99510.31;5069109;28;19928;-50
2021/11/28 03:15:34;;;;;;;;;;;;;;;2.92;100.00;99510.81;5070465;28;19924;-47
2021/11/28 03:18:02;;;;;;;;;;;;;;;2.95;100.00;99502.84;5072378;28;19925;-48
2021/11/28 03:20:30;;;;;;;;;;;;;;;2.90;100.00;99504.03;5068565;28;19929;-52
2021/11/28 03:22:57;;;;;;;;;;;;;;;2.91;100.00;99505.72;5069860;28;20013;-54
2021/11/28 03:25:24;;;;;;;;;;;;;;;2.91;100.00;99519.53;5070232;28;20407;-53
2021/11/28 03:27:51;;;;;;;;;;;;;;;2.92;100.00;99530.72;5068703;28;19986;-54
2021/11/28 03:30:19;;;;;;;;;;;;;;;2.91;100.00;99529.09;5068596;28;19928;-45
2021/11/28 03:32:56;;;;;;;;;;;;;;;2.90;100.00;99524.81;5039269;28;20007;-49
2021/11/28 03:35:29;;;;;;;;;;;;;;;2.88;100.00;99530.91;5038975;28;20576;-54
2021/11/28 03:37:56;;;;;;;;;;;;;;;2.87;100.00;99533.59;5070153;28;20402;-54
2021/11/28 03:40:22;;;;;;;;;;;;;;;2.90;100.00;99533.41;5070173;28;19951;-54
2021/11/28 03:42:52;;;;;;;;;;;;;;;2.93;100.00;99532.41;5068661;28;19947;-50
2021/11/28 03:45:26;;;;;;;;;;;;;;;2.87;100.00;99534.41;5035508;28;20118;-50
2021/11/28 03:48:03;;;;;;;;;;;;;;;2.84;100.00;99526.81;5039790;28;19964;-49
2021/11/28 03:50:40;;;;;;;;;;;;;;;2.86;100.00;99532.75;5038454;28;19931;-49
2021/11/28 03:53:13;;;;;;;;;;;;;;;2.91;100.00;99529.09;5038856;28;19932;-48
2021/11/28 03:55:41;;;;;;;;;;;;;;;2.89;100.00;99523.97;5069180;28;19924;-49
2021/11/28 03:58:07;;;;;;;;;;;;;;;2.88;100.00;99527.47;5067720;28;20307;-47
2021/11/28 04:00:34;;;;;;;;;;;;;;;2.86;100.00;99527.56;5068659;28;19925;-50
2021/11/28 04:03:01;;;;;;;;;;;;;;;2.84;100.00;99533.75;5073397;28;19924;-51
2021/11/28 04:05:28;;;;;;;;;;;;;;;2.83;100.00;99525.13;5072055;28;20337;-54
2021/11/28 04:07:55;;;;;;;;;;;;;;;2.83;100.00;99527.72;5072277;28;19978;-53
2021/11/28 04:10:22;;;;;;;;;;;;;;;2.82;100.00;99525.19;5073279;28;20375;-52
2021/11/28 04:12:48;;;;;;;;;;;;;;;2.80;100.00;99517.50;5071986;28;20032;-51
2021/11/28 04:15:15;;;;;;;;;;;;;;;2.83;100.00;99517.31;5071771;28;19925;-53
2021/11/28 04:17:42;;;;;;;;;;;;;;;2.83;100.00;99525.13;5054652;28;19925;-49
2021/11/28 04:20:09;;;;;;;;;;;;;;;2.85;100.00;99525.88;5071884;28;19924;-52
2021/11/28 04:22:36;;;;;;;;;;;;;;;2.83;100.00;99527.72;5071711;28;19924;-48
2021/11/28 04:25:03;;;;;;;;;;;;;;;2.85;100.00;99530.22;5071887;28;19978;-52
2021/11/28 04:27:29;;;;;;;;;;;;;;;2.84;100.00;99532.00;5055202;28;19986;-52
2021/11/28 04:29:56;;;;;;;;;;;;;;;2.84;100.00;99534.59;5073159;28;19925;-52
2021/11/28 04:32:23;;;;;;;;;;;;;;;2.80;100.00;99527.06;5072285;28;19924;-50
2021/11/28 04:34:49;;;;;;;;;;;;;;;2.80;100.00;99533.09;5071390;28;20840;-54
2021/11/28 04:37:16;;;;;;;;;;;;;;;2.79;100.00;99536.59;5072739;28;19928;-55
2021/11/28 04:39:43;;;;;;;;;;;;;;;2.82;100.00;99544.25;5074367;28;20375;-53
2021/11/28 04:42:10;;;;;;;;;;;;;;;2.83;100.00;99529.47;5075462;28;20553;-53
2021/11/28 04:44:36;;;;;;;;;;;;;;;2.78;100.00;99536.69;5074044;28;20000;-52
2021/11/28 04:47:03;;;;;;;;;;;;;;;2.78;100.00;99540.13;5075544;28;20108;-53
2021/11/28 04:49:29;;;;;;;;;;;;;;;2.80;100.00;99543.47;5075340;28;19971;-49
2021/11/28 04:51:56;;;;;;;;;;;;;;;2.81;100.00;99552.09;5075190;28;19925;-49
2021/11/28 04:54:23;;;;;;;;;;;;;;;2.81;100.00;99550.34;5075105;28;19937;-46
2021/11/28 04:56:50;;;;;;;;;;;;;;;2.82;100.00;99543.38;5073782;28;19928;-52
2021/11/28 04:59:17;;;;;;;;;;;;;;;2.78;100.00;99542.72;5070761;28;19924;-48
2021/11/28 05:01:43;;;;;;;;;;;;;;;2.75;100.00;99545.47;5071730;28;19931;-50
2021/11/28 05:04:11;;;;;;;;;;;;;;;2.79;100.00;99546.16;5072017;28;19960;-55
2021/11/28 05:06:37;;;;;;;;;;;;;;;2.74;100.00;99554.19;5054206;28;19928;-54
2021/11/28 05:09:04;;;;;;;;;;;;;;;2.70;100.00;99548.31;5072292;28;19925;-55
2021/11/28 05:11:31;;;;;;;;;;;;;;;2.67;100.00;99552.81;5073075;28;19929;-51
2021/11/28 05:13:57;;;;;;;;;;;;;;;2.50;100.00;99548.53;5071312;28;19924;-52
2021/11/28 05:16:24;;;;;;;;;;;;;;;2.55;100.00;99556.94;5053764;28;20326;-51
2021/11/28 05:18:51;;;;;;;;;;;;;;;2.58;100.00;99551.56;5071618;28;19962;-50
2021/11/28 05:21:18;;;;;;;;;;;;;;;2.61;100.00;99553.16;5070788;28;20311;-49
2021/11/28 05:23:45;;;;;;;;;;;;;;;2.60;100.00;99557.50;5072047;28;19932;-51
2021/11/28 05:26:12;;;;;;;;;;;;;;;2.64;100.00;99547.81;5071970;28;19928;-55
2021/11/28 05:28:38;;;;;;;;;;;;;;;2.54;100.00;99552.66;5054426;28;19970;-48
2021/11/28 05:31:05;;;;;;;;;;;;;;;2.44;100.00;99556.63;5071249;28;19925;-52
2021/11/28 05:33:33;;;;;;;;;;;;;;;2.33;100.00;99559.78;5071688;28;20323;-56
2021/11/28 05:35:59;;;;;;;;;;;;;;;2.29;100.00;99560.84;5073375;28;20375;-53
2021/11/28 05:38:26;;;;;;;;;;;;;;;2.27;100.00;99557.50;5070432;28;19925;-50
2021/11/28 05:40:52;;;;;;;;;;;;;;;2.26;100.00;99561.00;5054070;28;19935;-51
2021/11/28 05:43:19;;;;;;;;;;;;;;;2.19;100.00;99569.09;5071621;28;20326;-53
2021/11/28 05:45:46;;;;;;;;;;;;;;;2.26;100.00;99579.16;5072431;28;19928;-53
2021/11/28 05:48:12;;;;;;;;;;;;;;;2.12;100.00;99583.28;5072615;28;19925;-47
2021/11/28 05:50:39;;;;;;;;;;;;;;;2.04;100.00;99582.84;5070711;28;19999;-50
2021/11/28 05:53:06;;;;;;;;;;;;;;;2.07;100.00;99593.06;5071453;28;19924;-49
2021/11/28 05:55:33;;;;;;;;;;;;;;;2.10;100.00;99598.13;5072869;28;19924;-50
2021/11/28 05:57:59;;;;;;;;;;;;;;;2.02;100.00;99595.06;5074377;28;19924;-51
2021/11/28 06:00:26;;;;;;;;;;;;;;;1.85;100.00;99590.69;5039579;28;19931;-48
2021/11/28 06:02:54;;;;;;;;;;;;;;;1.80;100.00;99603.88;5072837;28;19928;-50
2021/11/28 06:05:20;;;;;;;;;;;;;;;1.80;100.00;99600.44;5056442;28;19926;-48
2021/11/28 06:07:47;;;;;;;;;;;;;;;1.80;100.00;99603.88;5073957;28;20516;-54
2021/11/28 06:10:14;;;;;;;;;;;;;;;1.83;100.00;99615.88;5071267;28;19929;-53
2021/11/28 06:12:40;;;;;;;;;;;;;;;1.77;100.00;99614.41;5069015;28;19929;-47
2021/11/28 06:15:07;;;;;;;;;;;;;;;1.70;100.00;99615.59;5070716;28;19931;-53
2021/11/28 06:17:34;;;;;;;;;;;;;;;1.54;100.00;99607.75;5073697;28;19928;-51
2021/11/28 06:20:00;;;;;;;;;;;;;;;1.52;100.00;99617.31;5074196;28;19925;-52
2021/11/28 06:22:27;;;;;;;;;;;;;;;1.51;100.00;99618.22;5073565;28;19932;-49
2021/11/28 06:24:54;;;;;;;;;;;;;;;1.50;100.00;99616.53;5069324;28;19954;-52
2021/11/28 06:27:20;;;;;;;;;;;;;;;1.46;100.00;99613.28;5070492;28;19925;-56
2021/11/28 06:29:47;;;;;;;;;;;;;;;1.40;100.00;99616.13;5070435;28;19978;-53
2021/11/28 06:32:14;;;;;;;;;;;;;;;1.38;100.00;99614.53;5071866;28;20391;-51
2021/11/28 06:34:41;;;;;;;;;;;;;;;1.29;100.00;99618.41;5070393;28;19925;-47
2021/11/28 06:37:08;;;;;;;;;;;;;;;1.30;100.00;99620.09;5070017;28;19929;-52
2021/11/28 06:39:51;;;;;;;;;;;;;;;1.12;100.00;99624.38;5070632;28;19978;-49
2021/11/28 06:42:17;;;;;;;;;;;;;;;1.08;100.00;99615.88;5073288;28;19924;-48
2021/11/28 06:44:44;;;;;;;;;;;;;;;1.03;100.00;99619.59;5073236;28;20338;-54
2021/11/28 06:47:12;;;;;;;;;;;;;;;1.01;100.00;99624.84;5071187;28;19925;-48
2021/11/28 06:49:38;;;;;;;;;;;;;;;1.04;100.00;99629.03;5070071;28;20037;-49
2021/11/28 06:52:05;;;;;;;;;;;;;;;0.92;100.00;99630.44;5068921;28;19974;-49
2021/11/28 06:54:32;;;;;;;;;;;;;;;0.81;100.00;99631.72;5070049;28;20383;-50
2021/11/28 06:56:58;;;;;;;;;;;;;;;0.80;100.00;99632.63;5070373;28;19928;-49
2021/11/28 06:59:26;;;;;;;;;;;;;;;0.81;100.00;99634.31;5067748;28;19928;-50
2021/11/28 07:01:52;;;;;;;;;;;;;;;0.78;100.00;99650.00;5069674;28;19935;-54
2021/11/28 07:04:19;;;;;;;;;;;;;;;0.82;100.00;99648.13;5069746;28;20023;-52
2021/11/28 07:06:46;;;;;;;;;;;;;;;0.72;100.00;99660.59;5070155;28;19932;-55
2021/11/28 07:09:12;;;;;;;;;;;;;;;0.67;100.00;99662.56;5069774;28;19932;-54
2021/11/28 07:11:39;;;;;;;;;;;;;;;0.62;100.00;99674.84;5069783;28;19925;-53
2021/11/28 07:14:06;;;;;;;;;;;;;;;0.59;100.00;99664.66;5071456;28;20318;-55
2021/11/28 07:16:32;;;;;;;;;;;;;;;0.54;100.00;99675.16;5072615;28;19932;-54
2021/11/28 07:18:59;;;;;;;;;;;;;;;0.51;100.00;99675.31;5072957;28;20393;-55
2021/11/28 07:21:26;;;;;;;;;;;;;;;0.51;100.00;99675.31;5072736;28;20027;-54
2021/11/28 07:23:52;;;;;;;;;;;;;;;0.43;100.00;99677.38;5072325;28;19925;-53
2021/11/28 07:26:19;;;;;;;;;;;;;;;0.49;100.00;99669.34;5072308;28;19925;-52
2021/11/28 07:28:46;;;;;;;;;;;;;;;0.36;100.00;99668.19;5071400;28;19929;-52
2021/11/28 07:31:13;;;;;;;;;;;;;;;0.30;100.00;99671.84;5071330;28;20006;-53
2021/11/28 07:33:39;;;;;;;;;;;;;;;0.24;100.00;99683.28;5072597;28;19931;-51
2021/11/28 07:36:07;;;;;;;;;;;;;;;0.23;100.00;99680.78;5073554;28;19924;-50
2021/11/28 07:38:34;;;;;;;;;;;;;;;0.24;100.00;99682.47;5076794;28;19975;-51
2021/11/28 07:41:01;;;;;;;;;;;;;;;0.18;100.00;99686.16;5075609;28;20317;-53
2021/11/28 07:43:28;;;;;;;;;;;;;;;0.15;100.00;99699.19;5073542;28;19954;-54
2021/11/28 07:45:54;;;;;;;;;;;;;;;0.14;100.00;99705.28;5073464;28;20023;-52
2021/11/28 07:48:21;;;;;;;;;;;;;;;0.14;100.00;99708.69;5076196;28;19983;-50
2021/11/28 07:50:49;;;;;;;;;;;;;;;0.15;100.00;99720.72;5073845;28;20404;-52
2021/11/28 07:53:16;;;;;;;;;;;;;;;0.13;100.00;99727.69;5072924;28;19932;-55
2021/11/28 07:55:42;;;;;;;;;;;;;;;0.16;100.00;99729.31;5075207;28;19924;-51
2021/11/28 07:58:09;;;;;;;;;;;;;;;0.14;100.00;99734.56;5074974;28;19925;-52
2021/11/28 08:00:36;;;;;;;;;;;;;;;0.20;100.00;99735.22;5072411;28;19924;-55
2021/11/28 08:03:03;;;;;;;;;;;;;;;0.15;100.00;99737.97;5072154;28;19924;-55
2021/11/28 08:05:31;;;;;;;;;;;;;;;0.19;100.00;99738.69;5075635;28;20520;-53
2021/11/28 08:07:58;;;;;;;;;;;;;;;0.23;100.00;99735.09;5072156;28;19935;-55
2021/11/28 08:10:24;;;;;;;;;;;;;;;0.26;100.00;99733.22;5071604;28;20383;-55
2021/11/28 08:12:51;;;;;;;;;;;;;;;0.35;100.00;99739.75;5073598;28;19928;-56
2021/11/28 08:15:21;;;;;;;;;;;;;;;0.37;100.00;99737.97;5071405;28;19924;-55
2021/11/28 08:17:48;;;;;;;;;;;;;;;0.44;100.00;99739.41;5072347;28;20415;-54
2021/11/28 08:20:15;;;;;;;;;;;;;;;0.52;100.00;99741.69;5074717;28;19955;-54
2021/11/28 08:22:43;;;;;;;;;;;;;;;0.60;100.00;99743.94;5073619;28;20383;-51
2021/11/28 08:25:10;;;;;;;;;;;;;;;0.70;100.00;99750.44;5071956;28;20337;-52
2021/11/28 08:27:37;;;;;;;;;;;;;;;0.79;100.00;99754.38;5074512;28;19928;-51
2021/11/28 08:30:10;;;;;;;;;;;;;;;0.78;100.00;99753.53;5075957;28;19925;-53
2021/11/28 08:32:38;;;;;;;;;;;;;;;0.79;100.00;99756.94;5076233;28;19925;-52
2021/11/28 08:35:09;;;;;;;;;;;;;;;0.82;100.00;99744.72;5074784;28;19974;-54
2021/11/28 08:37:35;;;;;;;;;;;;;;;0.89;100.00;99755.66;5075621;28;19924;-49
2021/11/28 08:40:04;;;;;;;;;;;;;;;0.87;100.00;99749.69;5075716;28;19925;-51
2021/11/28 08:42:34;;;;;;;;;;;;;;;0.90;100.00;99746.16;5073018;28;20399;-51
2021/11/28 08:45:01;;;;;;;;;;;;;;;0.94;100.00;99758.91;5072328;28;19970;-53
2021/11/28 08:47:27;;;;;;;;;;;;;;;0.89;100.00;99760.84;5070994;28;19929;-52
2021/11/28 08:49:54;;;;;;;;;;;;;;;0.89;100.00;99762.59;5071625;28;20386;-49
2021/11/28 08:52:21;;;;;;;;;;;;;;;0.88;100.00;99763.50;5073506;28;20290;-52
2021/11/28 08:54:47;;;;;;;;;;;;;;;0.94;100.00;99766.69;5073315;28;19929;-52
2021/11/28 08:57:14;;;;;;;;;;;;;;;0.97;100.00;99766.53;5054890;28;19928;-56
2021/11/28 08:59:42;;;;;;;;;;;;;;;1.03;100.00;99765.44;5070216;28;20396;-54
2021/11/28 09:02:10;;;;;;;;;;;;;;;1.10;100.00;99769.44;5071491;28;20379;-56
2021/11/28 09:04:37;;;;;;;;;;;;;;;1.12;100.00;99778.00;5071173;28;19928;-55
2021/11/28 09:07:04;;;;;;;;;;;;;;;1.10;100.00;99773.78;5072222;28;19974;-57
2021/11/28 09:09:31;;;;;;;;;;;;;;;1.21;100.00;99781.94;5056345;28;19974;-55
2021/11/28 09:11:58;;;;;;;;;;;;;;;1.24;100.00;99781.81;5072375;28;19970;-52
2021/11/28 09:14:26;;;;;;;;;;;;;;;1.33;100.00;99780.56;5071702;28;19924;-56
2021/11/28 09:16:52;;;;;;;;;;;;;;;1.36;100.00;99777.81;5074444;28;19925;-56
2021/11/28 09:19:24;;;;;;;;;;;;;;;1.40;100.00;99781.13;5072206;28;19924;-54
2021/11/28 09:21:51;;;;;;;;;;;;;;;1.48;100.00;99773.88;5071594;28;19929;-51
2021/11/28 09:24:36;;;;;;;;;;;;;;;1.51;100.00;99777.16;5072682;28;19924;-52
2021/11/28 09:27:07;;;;;;;;;;;;;;;1.56;100.00;99778.72;5071843;28;19963;-51
2021/11/28 09:29:34;;;;;;;;;;;;;;;1.69;100.00;99772.91;5071715;28;20387;-52
2021/11/28 09:32:01;;;;;;;;;;;;;;;1.75;100.00;99784.75;5069751;28;19928;-52
2021/11/28 09:34:28;;;;;;;;;;;;;;;1.85;100.00;99780.84;5052965;28;19929;-55
2021/11/28 09:36:54;;;;;;;;;;;;;;;1.98;100.00;99783.69;5073403;28;19925;-54
2021/11/28 09:39:21;;;;;;;;;;;;;;;1.93;100.00;99787.41;5071462;28;19928;-48
2021/11/28 09:42:01;;;;;;;;;;;;;;;2.00;100.00;99776.69;5071618;28;19925;-47
2021/11/28 09:44:29;;;;;;;;;;;;;;;2.15;100.00;99784.66;5072273;28;19929;-54
2021/11/28 09:46:55;;;;;;;;;;;;;;;2.17;100.00;99777.66;5069905;28;19925;-54
2021/11/28 09:49:24;;;;;;;;;;;;;;;2.21;100.00;99776.59;5069942;28;20019;-53
2021/11/28 09:51:52;;;;;;;;;;;;;;;2.29;100.00;99776.22;5071275;28;19924;-50
2021/11/28 09:54:18;;;;;;;;;;;;;;;2.34;100.00;99780.25;5072100;28;19925;-48
2021/11/28 09:56:45;;;;;;;;;;;;;;;2.45;100.00;99778.91;5071705;28;19952;-54
2021/11/28 09:59:12;;;;;;;;;;;;;;;2.73;100.00;99770.63;5068261;28;19925;-53
2021/11/28 10:01:41;;;;;;;;;;;;;;;2.82;100.00;99764.97;5069554;28;20407;-47
2021/11/28 10:04:08;;;;;;;;;;;;;;;2.83;100.00;99773.59;5070906;28;19935;-53
2021/11/28 10:06:35;;;;;;;;;;;;;;;2.92;100.00;99775.72;5054169;28;20411;-55
2021/11/28 10:09:06;;;;;;;;;;;;;;;3.04;100.00;99764.72;5072753;28;19925;-52
2021/11/28 10:11:39;;;;;;;;;;;;;;;3.08;100.00;99760.22;5072069;28;19936;-56
2021/11/28 10:14:09;;;;;;;;;;;;;;;3.14;100.00;99764.25;5070940;28;19928;-56
2021/11/28 10:16:36;;;;;;;;;;;;;;;3.12;100.00;99761.75;5072944;28;19964;-47
2021/11/28 10:19:03;;;;;;;;;;;;;;;3.17;100.00;99762.31;5070732;28;20024;-52
2021/11/28 10:21:33;;;;;;;;;;;;;;;3.22;100.00;99768.13;5071303;28;20288;-55
2021/11/28 10:24:03;;;;;;;;;;;;;;;3.28;100.00;99761.75;5070837;28;19930;-54
2021/11/28 10:26:29;;;;;;;;;;;;;;;3.29;100.00;99767.81;5070574;28;19928;-46
2021/11/28 10:29:04;;;;;;;;;;;;;;;3.35;100.00;99770.94;5069158;28;19925;-48
2021/11/28 10:31:51;;;;;;;;;;;;;;;3.44;100.00;99767.00;5070247;28;19931;-49
2021/11/28 10:34:21;;;;;;;;;;;;;;;3.39;100.00;99766.41;5070507;28;19951;-48
2021/11/28 10:36:48;;;;;;;;;;;;;;;3.46;100.00;99765.16;5070003;28;19929;-47
2021/11/28 10:39:19;;;;;;;;;;;;;;;3.46;100.00;99754.75;5070591;28;19956;-48
2021/11/28 10:41:53;;;;;;;;;;;;;;;3.51;100.00;99757.97;5072519;28;19974;-51
2021/11/28 10:44:21;;;;;;;;;;;;;;;3.54;100.00;99759.56;5069596;28;19925;-51
2021/11/28 10:46:48;;;;;;;;;;;;;;;3.60;100.00;99748.84;5069025;28;19985;-48
2021/11/28 10:49:19;;;;;;;;;;;;;;;3.55;100.00;99746.47;5072824;28;20005;-47
2021/11/28 10:51:48;;;;;;;;;;;;;;;3.60;100.00;99748.00;5072810;28;19928;-51
2021/11/28 10:54:26;;;;;;;;;;;;;;;3.69;100.00;99750.09;5052440;28;20375;-49
2021/11/28 10:57:05;;;;;;;;;;;;;;;3.75;100.00;99751.53;5070035;28;19924;-54
2021/11/28 10:59:32;;;;;;;;;;;;;;;3.76;100.00;99754.03;5068052;28;20467;-54
2021/11/28 11:01:59;;;;;;;;;;;;;;;3.82;100.00;99753.72;5054568;28;19928;-55
2021/11/28 11:04:29;;;;;;;;;;;;;;;3.84;100.00;99751.84;5072839;28;19924;-53
2021/11/28 11:07:05;;;;;;;;;;;;;;;3.81;100.00;99754.63;5068782;28;19935;-54
2021/11/28 11:09:38;;;;;;;;;;;;;;;3.85;100.00;99753.53;5070007;28;19936;-54
2021/11/28 11:12:19;;;;;;;;;;;;;;;3.89;100.00;99762.03;5070873;28;20059;-55
2021/11/28 11:14:46;;;;;;;;;;;;;;;3.88;100.00;99760.34;5072532;28;19928;-48
2021/11/28 11:17:18;;;;;;;;;;;;;;;3.88;100.00;99760.34;5069185;28;19928;-47
2021/11/28 11:19:46;;;;;;;;;;;;;;;3.94;100.00;99769.56;5069930;28;19932;-54
2021/11/28 11:22:18;;;;;;;;;;;;;;;3.97;100.00;99765.06;5070281;28;20335;-52
2021/11/28 11:24:49;;;;;;;;;;;;;;;3.94;100.00;99767.84;5069855;28;19940;-49
2021/11/28 11:27:17;;;;;;;;;;;;;;;3.96;100.00;99763.38;5070276;28;19924;-49
2021/11/28 11:29:48;;;;;;;;;;;;;;;3.91;100.00;99767.97;5069612;28;20374;-51
2021/11/28 11:32:24;;;;;;;;;;;;;;;4.00;100.00;99771.84;5069281;28;19935;-49
2021/11/28 11:34:55;;;;;;;;;;;;;;;3.97;100.00;99769.44;5070019;28;19932;-55
2021/11/28 11:37:25;;;;;;;;;;;;;;;3.96;100.00;99770.34;5069161;28;20019;-54
2021/11/28 11:39:52;;;;;;;;;;;;;;;3.90;100.00;99774.13;5069823;28;19924;-54
2021/11/28 11:42:20;;;;;;;;;;;;;;;3.89;100.00;99767.25;5068790;28;19986;-55
2021/11/28 11:44:47;;;;;;;;;;;;;;;3.92;100.00;99763.63;5069062;28;19939;-55
2021/11/28 11:47:17;;;;;;;;;;;;;;;3.91;100.00;99761.94;5067763;28;19936;-55
2021/11/28 11:49:44;;;;;;;;;;;;;;;3.99;100.00;99764.97;5068130;28;20051;-56
2021/11/28 11:52:10;;;;;;;;;;;;;;;4.07;100.00;99761.00;5069777;28;20030;-55
2021/11/28 11:54:46;;;;;;;;;;;;;;;4.16;100.00;99754.47;5069813;28;19925;-55
2021/11/28 11:57:12;;;;;;;;;;;;;;;4.17;100.00;99750.94;5068442;28;19924;-56
2021/11/28 11:59:39;;;;;;;;;;;;;;;4.17;100.00;99756.16;5069844;28;19925;-54
2021/11/28 12:02:06;;;;;;;;;;;;;;;4.25;100.00;99758.31;5070890;28;19982;-56
2021/11/28 12:04:36;;;;;;;;;;;;;;;4.27;100.00;99760.81;5069194;28;19963;-52
2021/11/28 12:07:03;;;;;;;;;;;;;;;4.36;100.00;99760.31;5067939;28;19935;-54
2021/11/28 12:09:31;;;;;;;;;;;;;;;4.31;100.00;99763.19;5070249;28;20336;-55
2021/11/28 12:12:06;;;;;;;;;;;;;;;4.28;100.00;99768.56;5069766;28;19929;-51
2021/11/28 12:14:32;;;;;;;;;;;;;;;4.35;100.00;99771.63;5068770;28;19924;-49
2021/11/28 12:16:59;;;;;;;;;;;;;;;4.39;100.00;99773.16;5067720;28;19925;-51
2021/11/28 12:19:42;;;;;;;;;;;;;;;4.30;100.00;99771.91;5067261;28;19982;-53
2021/11/28 12:22:27;;;;;;;;;;;;;;;4.35;100.00;99771.63;5069029;28;19932;-55
2021/11/28 12:24:57;;;;;;;;;;;;;;;4.36;100.00;99771.56;5074485;28;19925;-54
2021/11/28 12:27:36;;;;;;;;;;;;;;;4.40;100.00;99772.22;5072686;28;19964;-55
2021/11/28 12:30:04;;;;;;;;;;;;;;;4.38;100.00;99777.53;5055123;28;19924;-50
2021/11/28 12:32:33;;;;;;;;;;;;;;;4.45;100.00;99775.41;5074386;28;19970;-51
2021/11/28 12:35:00;;;;;;;;;;;;;;;4.52;100.00;99770.69;5074774;28;19924;-55
2021/11/28 12:37:34;;;;;;;;;;;;;;;4.44;100.00;99773.72;5075575;28;20260;-47
2021/11/28 12:40:20;;;;;;;;;;;;;;;4.41;100.00;99763.50;5074104;28;19931;-52
2021/11/28 12:42:47;;;;;;;;;;;;;;;4.41;100.00;99771.31;5075700;28;20303;-55
2021/11/28 12:45:25;;;;;;;;;;;;;;;4.42;100.00;99773.00;5073811;28;20348;-54
2021/11/28 12:48:03;;;;;;;;;;;;;;;4.46;100.00;99777.09;5072216;28;19925;-54
2021/11/28 12:50:29;;;;;;;;;;;;;;;4.55;100.00;99773.97;5072486;28;19935;-55
2021/11/28 12:52:56;;;;;;;;;;;;;;;4.68;100.00;99775.88;5073354;28;19951;-56
2021/11/28 12:55:24;;;;;;;;;;;;;;;4.72;100.00;99770.41;5056674;28;20390;-54
2021/11/28 12:57:58;;;;;;;;;;;;;;;4.71;100.00;99771.31;5071033;28;19932;-47
2021/11/28 13:00:29;;;;;;;;;;;;;;;4.72;100.00;99759.97;5071256;28;20504;-52
2021/11/28 13:03:08;;;;;;;;;;;;;;;4.72;100.00;99767.78;5072296;28;19951;-56